createdAt,value
2023-03-05T00:00:39.882Z,92738.06
2023-03-05T00:03:22.691Z,92735.63
2023-03-05T00:06:06.670Z,92738.97
2023-03-05T00:08:49.775Z,92739.75
2023-03-05T00:11:34.512Z,92738.06
2023-03-05T00:14:17.290Z,92729.75
2023-03-05T00:17:00.149Z,92733.19
2023-03-05T00:19:42.945Z,92726.50
2023-03-05T00:22:25.841Z,92732.44
2023-03-05T00:25:09.506Z,92721.53
2023-03-05T00:27:53.710Z,92726.69
2023-03-05T00:30:36.927Z,92713.41
2023-03-05T00:33:19.769Z,92722.72
2023-03-05T00:36:06.970Z,92716.06
2023-03-05T00:38:49.943Z,92713.69
2023-03-05T00:41:32.750Z,92707.03
2023-03-05T00:44:17.051Z,92702.75
2023-03-05T00:47:00.039Z,92696.00
2023-03-05T00:49:42.870Z,92686.91
2023-03-05T00:52:26.386Z,92691.84
2023-03-05T00:55:09.678Z,92687.53
2023-03-05T00:57:52.602Z,92684.09
2023-03-05T01:00:38.277Z,92685.97
2023-03-05T01:03:21.532Z,92681.75
2023-03-05T01:06:08.170Z,92673.28
2023-03-05T01:08:51.421Z,92674.06
2023-03-05T01:11:34.266Z,92676.59
2023-03-05T01:14:17.132Z,92668.22
2023-03-05T01:17:01.321Z,92671.66
2023-03-05T01:19:44.488Z,92668.22
2023-03-05T01:22:27.476Z,92667.38
2023-03-05T01:25:11.125Z,92659.81
2023-03-05T01:27:53.965Z,92654.75
2023-03-05T01:30:36.832Z,92656.38
2023-03-05T01:33:21.523Z,92658.00
2023-03-05T01:36:08.690Z,92654.69
2023-03-05T01:38:51.902Z,92646.28
2023-03-05T01:41:35.496Z,92650.41
2023-03-05T01:44:27.892Z,92646.19
2023-03-05T01:47:10.729Z,92642.75
2023-03-05T01:49:55.283Z,92641.88
2023-03-05T01:52:41.444Z,92640.41
2023-03-05T01:55:26.141Z,92639.59
2023-03-05T01:58:12.867Z,92637.16
2023-03-05T02:00:56.781Z,92632.91
2023-03-05T02:03:40.377Z,92631.31
2023-03-05T02:06:24.645Z,92629.59
2023-03-05T02:09:07.631Z,92629.69
2023-03-05T02:11:50.786Z,92632.13
2023-03-05T02:14:34.724Z,92632.28
2023-03-05T02:17:18.372Z,92625.63
2023-03-05T02:20:07.455Z,92631.50
2023-03-05T02:22:51.966Z,92626.34
2023-03-05T02:25:35.016Z,92626.34
2023-03-05T02:28:24.123Z,92627.97
2023-03-05T02:31:10.995Z,92614.63
2023-03-05T02:33:55.912Z,92610.38
2023-03-05T02:36:40.066Z,92611.28
2023-03-05T02:39:25.220Z,92611.19
2023-03-05T02:42:08.545Z,92604.44
2023-03-05T02:44:52.162Z,92604.22
2023-03-05T02:47:35.015Z,92601.63
2023-03-05T02:50:18.340Z,92590.41
2023-03-05T02:53:01.175Z,92587.69
2023-03-05T02:55:49.305Z,92581.66
2023-03-05T02:58:32.208Z,92586.59
2023-03-05T03:01:15.103Z,92583.16
2023-03-05T03:03:57.965Z,92584.69
2023-03-05T03:06:40.767Z,92582.06
2023-03-05T03:09:23.595Z,92583.78
2023-03-05T03:12:08.687Z,92576.28
2023-03-05T03:14:52.590Z,92574.69
2023-03-05T03:17:36.857Z,92566.38
2023-03-05T03:20:20.508Z,92562.16
2023-03-05T03:23:03.815Z,92563.78
2023-03-05T03:25:46.601Z,92567.28
2023-03-05T03:28:30.796Z,92563.97
2023-03-05T03:31:13.653Z,92556.56
2023-03-05T03:33:56.510Z,92555.72
2023-03-05T03:36:39.314Z,92554.81
2023-03-05T03:39:23.683Z,92548.06
2023-03-05T03:42:06.975Z,92550.59
2023-03-05T03:44:51.901Z,92546.53
2023-03-05T03:47:34.662Z,92538.94
2023-03-05T03:50:17.816Z,92540.50
2023-03-05T03:53:00.641Z,92542.19
2023-03-05T03:55:44.026Z,92545.53
2023-03-05T03:58:27.222Z,92540.50
2023-03-05T04:01:11.448Z,92531.47
2023-03-05T04:03:54.325Z,92532.31
2023-03-05T04:06:37.207Z,92528.34
2023-03-05T04:09:20.105Z,92527.50
2023-03-05T04:12:03.079Z,92520.66
2023-03-05T04:14:46.582Z,92523.88
2023-03-05T04:17:30.769Z,92513.69
2023-03-05T04:20:14.126Z,92517.94
2023-03-05T04:22:57.020Z,92517.81
2023-03-05T04:25:39.913Z,92522.19
2023-03-05T04:28:22.758Z,92512.78
2023-03-05T04:31:06.238Z,92505.91
2023-03-05T04:33:50.449Z,92513.41
2023-03-05T04:36:33.272Z,92509.97
2023-03-05T04:39:16.420Z,92508.34
2023-03-05T04:41:59.228Z,92518.34
2023-03-05T04:44:42.021Z,92517.56
2023-03-05T04:47:24.855Z,92508.16
2023-03-05T04:50:10.905Z,92508.97
2023-03-05T04:52:53.808Z,92504.69
2023-03-05T04:55:36.669Z,92505.53
2023-03-05T04:58:19.466Z,92502.91
2023-03-05T05:01:03.563Z,92506.44
2023-03-05T05:03:46.390Z,92503.00
2023-03-05T05:06:30.631Z,92499.94
2023-03-05T05:09:13.696Z,92500.66
2023-03-05T05:11:56.514Z,92498.84
2023-03-05T05:14:39.432Z,92499.56
2023-03-05T05:17:22.214Z,92496.13
2023-03-05T05:20:07.817Z,92497.66
2023-03-05T05:22:52.168Z,92505.03
2023-03-05T05:25:35.066Z,92500.88
2023-03-05T05:28:17.885Z,92499.16
2023-03-05T05:31:00.807Z,92505.03
2023-03-05T05:33:44.411Z,92509.28
2023-03-05T05:36:27.327Z,92504.94
2023-03-05T05:39:11.854Z,92511.59
2023-03-05T05:41:54.596Z,92508.28
2023-03-05T05:44:37.379Z,92507.38
2023-03-05T05:47:20.374Z,92501.50
2023-03-05T05:50:03.225Z,92506.47
2023-03-05T05:52:46.029Z,92503.94
2023-03-05T05:55:30.260Z,92507.97
2023-03-05T05:58:13.054Z,92509.59
2023-03-05T06:00:55.877Z,92510.31
2023-03-05T06:03:38.666Z,92506.97
2023-03-05T06:06:23.240Z,92508.50
2023-03-05T06:09:06.587Z,92510.13
2023-03-05T06:11:51.371Z,92508.69
2023-03-05T06:14:34.207Z,92504.44
2023-03-05T06:17:25.143Z,92507.78
2023-03-05T06:20:13.704Z,92500.22
2023-03-05T06:22:56.601Z,92506.88
2023-03-05T06:25:39.445Z,92511.94
2023-03-05T06:28:23.622Z,92508.59
2023-03-05T06:31:08.768Z,92507.97
2023-03-05T06:33:51.683Z,92508.81
2023-03-05T06:36:34.570Z,92504.66
2023-03-05T06:39:17.413Z,92505.47
2023-03-05T06:42:00.253Z,92507.19
2023-03-05T06:44:46.516Z,92502.13
2023-03-05T06:47:30.032Z,92496.44
2023-03-05T06:50:13.610Z,92494.75
2023-03-05T06:52:56.492Z,92498.69
2023-03-05T06:55:40.573Z,92506.88
2023-03-05T06:58:23.893Z,92507.50
2023-03-05T07:01:08.777Z,92511.53
2023-03-05T07:03:53.181Z,92507.91
2023-03-05T07:06:39.343Z,92510.34
2023-03-05T07:09:22.248Z,92505.06
2023-03-05T07:12:05.483Z,92502.47
2023-03-05T07:14:48.277Z,92503.78
2023-03-05T07:17:32.456Z,92505.41
2023-03-05T07:20:15.699Z,92502.75
2023-03-05T07:22:58.495Z,92501.75
2023-03-05T07:25:41.318Z,92506.59
2023-03-05T07:28:24.139Z,92498.53
2023-03-05T07:31:09.341Z,92503.06
2023-03-05T07:33:54.152Z,92499.63
2023-03-05T07:36:38.201Z,92505.69
2023-03-05T07:39:21.154Z,92502.06
2023-03-05T07:42:04.423Z,92505.19
2023-03-05T07:45:03.829Z,92503.38
2023-03-05T07:47:46.649Z,92507.84
2023-03-05T07:50:32.986Z,92510.25
2023-03-05T07:53:16.358Z,92504.50
2023-03-05T07:55:59.187Z,92504.50
2023-03-05T07:58:42.024Z,92501.47
2023-03-05T08:01:24.931Z,92494.16
2023-03-05T08:04:08.993Z,92494.56
2023-03-05T08:06:53.490Z,92503.56
2023-03-05T08:09:36.243Z,92493.66
2023-03-05T08:12:19.054Z,92498.13
2023-03-05T08:15:02.026Z,92495.66
2023-03-05T08:17:44.845Z,92492.53
2023-03-05T08:20:27.780Z,92490.13
2023-03-05T08:23:11.950Z,92489.81
2023-03-05T08:25:54.932Z,92486.06
2023-03-05T08:28:38.155Z,92490.59
2023-03-05T08:31:23.856Z,92483.41
2023-03-05T08:34:07.575Z,92485.94
2023-03-05T08:36:50.656Z,92490.28
2023-03-05T08:39:34.801Z,92488.47
2023-03-05T08:42:17.652Z,92487.88
2023-03-05T08:45:00.403Z,92488.97
2023-03-05T08:47:43.411Z,92490.09
2023-03-05T08:50:26.196Z,92491.25
2023-03-05T08:53:09.077Z,92488.44
2023-03-05T08:55:56.783Z,92494.81
2023-03-05T08:58:39.646Z,92488.84
2023-03-05T09:01:22.735Z,92482.34
2023-03-05T09:04:05.626Z,92488.00
2023-03-05T09:06:48.472Z,92475.25
2023-03-05T09:09:32.901Z,92477.47
2023-03-05T09:12:17.046Z,92474.03
2023-03-05T09:14:59.865Z,92474.09
2023-03-05T09:17:43.112Z,92474.34
2023-03-05T09:20:25.941Z,92470.78
2023-03-05T09:23:08.752Z,92479.09
2023-03-05T09:25:51.808Z,92469.16
2023-03-05T09:28:35.967Z,92467.34
2023-03-05T09:31:19.446Z,92467.13
2023-03-05T09:34:02.271Z,92462.06
2023-03-05T09:36:45.194Z,92465.72
2023-03-05T09:39:28.018Z,92456.00
2023-03-05T09:42:38.638Z,92458.66
2023-03-05T09:45:28.383Z,92462.78
2023-03-05T09:48:18.140Z,92466.03
2023-03-05T09:51:03.162Z,92456.63
2023-03-05T09:53:49.655Z,92454.16
2023-03-05T09:56:36.657Z,92467.75
2023-03-05T09:59:31.746Z,92455.91
2023-03-05T10:02:20.674Z,92460.66
2023-03-05T10:05:14.022Z,92450.31
2023-03-05T10:08:02.175Z,92452.72
2023-03-05T10:10:49.832Z,92444.81
2023-03-05T10:13:39.403Z,92449.44
2023-03-05T10:16:40.885Z,92451.56
2023-03-05T10:19:48.095Z,92440.97
2023-03-05T10:22:34.576Z,92441.47
2023-03-05T10:25:24.815Z,92442.19
2023-03-05T10:28:17.827Z,92437.91
2023-03-05T10:31:12.884Z,92426.97
2023-03-05T10:34:09.961Z,92425.84
2023-03-05T10:37:18.738Z,92432.28
2023-03-05T10:40:19.442Z,92423.75
2023-03-05T10:43:09.499Z,92423.88
2023-03-05T10:45:55.363Z,92421.78
2023-03-05T10:48:43.895Z,92419.63
2023-03-05T10:51:35.186Z,92420.50
2023-03-05T10:54:26.503Z,92413.75
2023-03-05T10:57:18.814Z,92402.69
2023-03-05T11:00:14.322Z,92402.94
2023-03-05T11:03:00.114Z,92403.41
2023-03-05T11:05:45.745Z,92402.16
2023-03-05T11:08:32.372Z,92398.47
2023-03-05T11:11:18.879Z,92381.88
2023-03-05T11:14:04.789Z,92387.09
2023-03-05T11:16:51.504Z,92386.31
2023-03-05T11:19:35.377Z,92373.97
2023-03-05T11:22:20.677Z,92376.16
2023-03-05T11:25:18.737Z,92370.66
2023-03-05T11:28:04.492Z,92360.50
2023-03-05T11:30:57.297Z,92357.97
2023-03-05T11:33:40.124Z,92361.66
2023-03-05T11:36:26.601Z,92358.88
2023-03-05T11:39:17.099Z,92346.88
2023-03-05T11:42:03.020Z,92344.09
2023-03-05T11:44:50.838Z,92346.16
2023-03-05T11:47:40.575Z,92346.50
2023-03-05T11:50:26.674Z,92336.47
2023-03-05T11:53:15.685Z,92332.44
2023-03-05T11:56:04.764Z,92331.53
2023-03-05T11:58:53.627Z,92323.91
2023-03-05T12:01:44.504Z,92318.16
2023-03-05T12:04:28.403Z,92325.19
2023-03-05T12:07:17.319Z,92320.34
2023-03-05T12:10:01.028Z,92312.72
2023-03-05T12:12:49.452Z,92312.03
2023-03-05T12:15:51.006Z,92314.69
2023-03-05T12:18:42.390Z,92314.22
2023-03-05T12:21:34.119Z,92309.84
2023-03-05T12:24:37.399Z,92307.75
2023-03-05T12:27:35.192Z,92297.25
2023-03-05T12:30:56.812Z,92294.84
2023-03-05T12:33:41.738Z,92297.03
2023-03-05T12:36:39.854Z,92301.16
2023-03-05T12:39:44.009Z,92299.50
2023-03-05T12:42:47.788Z,92299.97
2023-03-05T12:45:39.015Z,92290.63
2023-03-05T12:48:45.902Z,92289.63
2023-03-05T12:51:34.425Z,92289.38
2023-03-05T12:54:28.656Z,92280.06
2023-03-05T12:57:19.590Z,92280.50
2023-03-05T13:00:08.085Z,92275.88
2023-03-05T13:02:56.061Z,92279.22
2023-03-05T13:05:40.471Z,92273.09
2023-03-05T13:08:26.782Z,92276.09
2023-03-05T13:11:17.408Z,92271.84
2023-03-05T13:14:02.653Z,92276.19
2023-03-05T13:16:45.542Z,92271.84
2023-03-05T13:19:30.228Z,92266.97
2023-03-05T13:22:14.392Z,92266.06
2023-03-05T13:25:15.162Z,92260.09
2023-03-05T13:28:03.933Z,92267.38
2023-03-05T13:30:53.063Z,92265.06
2023-03-05T13:33:37.273Z,92259.78
2023-03-05T13:36:20.912Z,92265.41
2023-03-05T13:39:06.710Z,92263.81
2023-03-05T13:42:02.118Z,92258.53
2023-03-05T13:44:44.997Z,92260.13
2023-03-05T13:47:29.812Z,92255.75
2023-03-05T13:50:26.050Z,92248.97
2023-03-05T13:53:19.336Z,92248.84
2023-03-05T13:56:05.728Z,92249.53
2023-03-05T13:58:53.275Z,92240.31
2023-03-05T14:01:43.768Z,92246.31
2023-03-05T14:04:28.769Z,92236.31
2023-03-05T14:07:29.323Z,92238.97
2023-03-05T14:10:30.270Z,92233.28
2023-03-05T14:13:19.039Z,92230.97
2023-03-05T14:16:05.876Z,92229.38
2023-03-05T14:18:57.151Z,92223.63
2023-03-05T14:21:48.701Z,92229.47
2023-03-05T14:24:32.204Z,92221.88
2023-03-05T14:27:22.022Z,92219.25
2023-03-05T14:30:15.921Z,92224.31
2023-03-05T14:33:00.710Z,92218.44
2023-03-05T14:35:50.451Z,92209.44
2023-03-05T14:38:35.402Z,92207.25
2023-03-05T14:41:23.777Z,92210.00
2023-03-05T14:44:15.468Z,92199.06
2023-03-05T14:46:59.734Z,92190.78
2023-03-05T14:49:42.550Z,92190.78
2023-03-05T14:52:26.653Z,92195.84
2023-03-05T14:55:15.509Z,92183.97
2023-03-05T14:58:02.410Z,92190.66
2023-03-05T15:00:45.544Z,92179.84
2023-03-05T15:03:29.703Z,92178.25
2023-03-05T15:06:24.098Z,92181.56
2023-03-05T15:09:09.201Z,92171.44
2023-03-05T15:11:51.972Z,92175.59
2023-03-05T15:14:34.785Z,92165.34
2023-03-05T15:17:21.596Z,92165.13
2023-03-05T15:20:08.071Z,92163.63
2023-03-05T15:22:50.844Z,92163.63
2023-03-05T15:25:34.250Z,92157.75
2023-03-05T15:28:17.438Z,92149.34
2023-03-05T15:31:00.620Z,92153.59
2023-03-05T15:33:43.653Z,92152.69
2023-03-05T15:36:27.823Z,92152.59
2023-03-05T15:39:10.661Z,92152.59
2023-03-05T15:41:54.091Z,92149.34
2023-03-05T15:44:36.909Z,92145.00
2023-03-05T15:47:19.693Z,92143.38
2023-03-05T15:50:02.514Z,92145.34
2023-03-05T15:52:46.690Z,92148.41
2023-03-05T15:55:29.562Z,92151.06
2023-03-05T15:58:14.997Z,92151.75
2023-03-05T16:00:57.829Z,92144.56
2023-03-05T16:03:40.702Z,92146.28
2023-03-05T16:06:25.369Z,92144.41
2023-03-05T16:09:09.919Z,92142.91
2023-03-05T16:11:52.577Z,92144.28
2023-03-05T16:14:35.494Z,92146.91
2023-03-05T16:17:20.496Z,92149.66
2023-03-05T16:20:03.721Z,92148.25
2023-03-05T16:22:46.522Z,92144.13
2023-03-05T16:25:30.837Z,92145.22
2023-03-05T16:28:13.698Z,92147.31
2023-03-05T16:30:57.819Z,92145.09
2023-03-05T16:33:40.581Z,92144.88
2023-03-05T16:36:26.717Z,92144.28
2023-03-05T16:39:09.542Z,92129.63
2023-03-05T16:41:53.698Z,92135.44
2023-03-05T16:44:36.510Z,92138.22
2023-03-05T16:47:19.313Z,92136.72
2023-03-05T16:50:02.364Z,92132.94
2023-03-05T16:52:45.206Z,92141.44
2023-03-05T16:55:28.142Z,92138.59
2023-03-05T16:58:12.288Z,92135.97
2023-03-05T17:00:55.153Z,92135.53
2023-03-05T17:03:41.306Z,92138.75
2023-03-05T17:06:26.363Z,92130.84
2023-03-05T17:09:09.226Z,92132.28
2023-03-05T17:11:52.199Z,92132.00
2023-03-05T17:14:36.404Z,92135.97
2023-03-05T17:17:19.247Z,92129.66
2023-03-05T17:20:02.158Z,92131.09
2023-03-05T17:22:45.088Z,92139.34
2023-03-05T17:25:27.986Z,92139.34
2023-03-05T17:28:10.940Z,92137.72
2023-03-05T17:30:56.415Z,92134.28
2023-03-05T17:33:41.479Z,92133.28
2023-03-05T17:36:25.298Z,92139.94
2023-03-05T17:39:08.789Z,92144.69
2023-03-05T17:41:51.568Z,92141.03
2023-03-05T17:44:34.420Z,92137.47
2023-03-05T17:47:18.591Z,92138.25
2023-03-05T17:50:02.038Z,92144.38
2023-03-05T17:52:45.578Z,92146.50
2023-03-05T17:55:28.941Z,92145.00
2023-03-05T17:58:11.810Z,92141.56
2023-03-05T18:00:54.689Z,92142.34
2023-03-05T18:03:38.894Z,92143.66
2023-03-05T18:06:21.848Z,92136.75
2023-03-05T18:09:04.784Z,92134.22
2023-03-05T18:11:47.590Z,92143.31
2023-03-05T18:14:30.381Z,92138.97
2023-03-05T18:17:13.209Z,92144.84
2023-03-05T18:19:57.404Z,92141.28
2023-03-05T18:22:40.224Z,92143.72
2023-03-05T18:25:25.799Z,92141.84
2023-03-05T18:28:11.826Z,92130.84
2023-03-05T18:30:54.798Z,92136.59
2023-03-05T18:33:38.788Z,92133.06
2023-03-05T18:36:22.986Z,92137.09
2023-03-05T18:39:05.762Z,92136.97
2023-03-05T18:41:48.840Z,92130.19
2023-03-05T18:44:31.623Z,92131.00
2023-03-05T18:47:14.436Z,92125.13
2023-03-05T18:49:57.311Z,92125.03
2023-03-05T18:52:41.488Z,92124.22
2023-03-05T18:55:26.302Z,92122.41
2023-03-05T18:58:09.143Z,92115.59
2023-03-05T19:00:52.076Z,92119.88
2023-03-05T19:03:34.865Z,92117.44
2023-03-05T19:06:17.883Z,92120.66
2023-03-05T19:09:08.571Z,92121.69
2023-03-05T19:11:51.469Z,92118.25
2023-03-05T19:14:34.219Z,92123.31
2023-03-05T19:17:17.202Z,92119.88
2023-03-05T19:20:00.262Z,92118.13
2023-03-05T19:22:43.642Z,92114.69
2023-03-05T19:25:27.782Z,92117.22
2023-03-05T19:28:10.778Z,92114.69
2023-03-05T19:30:53.671Z,92118.84
2023-03-05T19:33:36.533Z,92122.16
2023-03-05T19:36:19.352Z,92116.31
2023-03-05T19:39:03.953Z,92116.31
2023-03-05T19:41:48.156Z,92114.69
2023-03-05T19:44:31.424Z,92117.22
2023-03-05T19:47:14.222Z,92113.91
2023-03-05T19:49:57.041Z,92112.03
2023-03-05T19:52:39.877Z,92104.56
2023-03-05T19:55:22.724Z,92096.19
2023-03-05T19:58:06.870Z,92098.81
2023-03-05T20:00:49.687Z,92095.38
2023-03-05T20:03:32.486Z,92094.56
2023-03-05T20:06:15.716Z,92094.56
2023-03-05T20:08:59.290Z,92089.59
2023-03-05T20:11:42.790Z,92093.06
2023-03-05T20:14:26.930Z,92096.50
2023-03-05T20:17:09.838Z,92088.91
2023-03-05T20:19:55.342Z,92089.81
2023-03-05T20:22:38.178Z,92092.34
2023-03-05T20:25:24.818Z,92096.63
2023-03-05T20:28:08.197Z,92089.94
2023-03-05T20:30:56.014Z,92098.31
2023-03-05T20:33:39.783Z,92083.28
2023-03-05T20:36:23.052Z,92090.06
2023-03-05T20:39:07.368Z,92079.97
2023-03-05T20:41:51.194Z,92085.81
2023-03-05T20:44:33.990Z,92079.13
2023-03-05T20:47:32.228Z,92079.13
2023-03-05T20:50:16.352Z,92075.00
2023-03-05T20:52:59.175Z,92074.19
2023-03-05T20:55:42.773Z,92072.59
2023-03-05T20:58:25.580Z,92071.75
2023-03-05T21:01:08.557Z,92073.50
2023-03-05T21:03:53.681Z,92072.59
2023-03-05T21:06:36.776Z,92065.78
2023-03-05T21:09:19.566Z,92069.16
2023-03-05T21:12:02.391Z,92067.53
2023-03-05T21:14:45.192Z,92067.41
2023-03-05T21:17:27.982Z,92065.78
2023-03-05T21:20:15.343Z,92064.09
2023-03-05T21:22:59.487Z,92057.28
2023-03-05T21:25:42.473Z,92055.69
2023-03-05T21:28:26.098Z,92047.50
2023-03-05T21:31:10.893Z,92055.22
2023-03-05T21:33:53.757Z,92050.97
2023-03-05T21:36:37.932Z,92051.78
2023-03-05T21:39:20.755Z,92052.56
2023-03-05T21:42:05.172Z,92049.25
2023-03-05T21:44:47.979Z,92047.63
2023-03-05T21:47:30.901Z,92039.34
2023-03-05T21:50:15.973Z,92046.81
2023-03-05T21:53:00.220Z,92039.22
2023-03-05T21:55:47.883Z,92034.28
2023-03-05T21:58:31.726Z,92030.94
2023-03-05T22:01:16.244Z,92035.91
2023-03-05T22:03:59.147Z,92029.13
2023-03-05T22:06:41.976Z,92024.97
2023-03-05T22:09:26.111Z,92032.47
2023-03-05T22:12:10.209Z,92021.66
2023-03-05T22:14:53.045Z,92016.59
2023-03-05T22:17:35.902Z,92016.69
2023-03-05T22:20:19.529Z,92018.31
2023-03-05T22:23:02.314Z,92010.72
2023-03-05T22:25:46.695Z,92017.53
2023-03-05T22:28:30.720Z,92015.78
2023-03-05T22:31:21.046Z,91996.47
2023-03-05T22:34:03.955Z,91999.81
2023-03-05T22:36:46.712Z,92006.59
2023-03-05T22:39:29.547Z,91992.31
2023-03-05T22:42:13.671Z,91989.81
2023-03-05T22:44:58.118Z,91987.53
2023-03-05T22:47:40.818Z,91977.72
2023-03-05T22:50:24.273Z,91979.47
2023-03-05T22:53:07.370Z,91967.59
2023-03-05T22:55:50.583Z,91965.09
2023-03-05T22:58:36.162Z,91976.00
2023-03-05T23:01:22.787Z,91973.56
2023-03-05T23:04:18.216Z,91964.28
2023-03-05T23:07:01.084Z,91960.03
2023-03-05T23:09:43.916Z,91960.28
2023-03-05T23:12:28.582Z,91955.31
2023-03-05T23:15:15.468Z,91956.34
2023-03-05T23:17:58.755Z,91953.22
2023-03-05T23:20:42.168Z,91951.25
2023-03-05T23:23:25.065Z,91954.47
2023-03-05T23:26:07.905Z,91941.69
2023-03-05T23:28:50.796Z,91947.16
2023-03-05T23:31:34.968Z,91948.31
2023-03-05T23:34:17.762Z,91946.22
2023-03-05T23:37:01.619Z,91941.75
2023-03-05T23:39:44.427Z,91949.00
2023-03-05T23:42:27.244Z,91942.03
2023-03-05T23:45:12.202Z,91937.19
2023-03-05T23:47:56.832Z,91943.06
2023-03-05T23:50:41.747Z,91936.84
2023-03-05T23:53:27.281Z,91942.50
2023-03-05T23:56:11.206Z,91935.50
2023-03-05T23:58:56.106Z,91945.38
